Current Conditions

Updated: 10-Dec-2018 01:28 AM  
Summary / Temperature Wind Rain






Feels like: 48°F

1-hour difference
0.1°F 0.1°F warmer than last hour.

24-hour difference
1.7°F1.7°F colder than yesterday at this time.

  Today Yesterday
High: 48.3°F
12:39 AM
55.9°F
1:55 PM
Low: 47.9°F
12:00 AM
45.5°F
7:04 PM
Wind from NW NW
1.1
Gust:  0.0 mph
0 Beaufort - Light Air

Today: 4.6 - 9:00 AM
Month: 12.0 mph - Dec 4
Rain Today: 0.00 in
Current Rate (/hr): 0.000 in
Max Rate (/hr):
Rain Yesterday: 0.00 in
Storm Rain: 0.00 in
This Month: 0.28 in
Season Total: 2.02 in
Last Rain Event: 2 days ago
Humidity / Barometer Sun / Moon
Humidity: 94 Decreased 1.0% in the last hour.
Dew Point: 46.6°F Decreased 0.2°F in the last hour.
Barometer: 30.245 inHg  
Baro Trend: Falling slowly
Sunrise: 6:57 AM
Sunset: 4:41 PM
Moonrise: 9:40 AM
Moonset: 6:54 PM
Sky Conditions UV Index
Summary: Mist, Overcast
Visibility: 3 miles
Clouds: Overcast @ 1,100 ft
KVIS - 12:56 AM PST
Current: 0.0  None 
Monday: 2.0  Low 
Tuesday: 1.9  Low 
Air Quality Fire Danger
 Moderate 
Ozone 5 ppb
PM 2.5 29 μg/m3
1:20 AM PST
Current: 0  Low 

Local Alerts Local Forecast
Local NWS Alerts
Today

Hazy

High 58
Tonight

Partly
Cloudy
Low 40
Tue

Partly
Cloudy
High 56
Tue night

Mostly
Clear
Low 36
Wed

Partly
Cloudy
High 56
Wed night

Mostly
Clear
Low 37
Thu

Mostly
Sunny
High 61

Local Radar Local Satellite Neighborhood Cam Sky Cam
Local Radar Local Satellite Neighborhood Cam Sky Cam


Nearby Airport Stations

KVIS - Visalia, California, USA
Distance from station: W 14mi, 23km
Updated: Mon, 10-Dec-2018 12:56am PST
Mist, Overcast
Mist, Overcast
 Wind from calm
Wind: Calm
Temperature: 46°F , 8°C
Dew Point: 46°F , 8°C
Humidity: 100%
Barometer: 30.25 inHg , 1024.4 hPa
Summary: Mist
Clouds: Overcast
Visibility: 3 miles , 5 km
Cloud details: Overcast 1100 ft
2018/12/10 08:56 KVIS 100856Z AUTO 00000KT 3SM BR OVC011 08/08 A3025 RMK AO2 SLP255 T00830078 58011
KPTV - Porterville, California, USA
Distance from station: SSE 19mi, 31km
Updated: Mon, 10-Dec-2018 12:56am PST
Mist, Overcast
Mist, Overcast
 Wind from NE
Wind: NE 5 mph , 7 km/h
Temperature: 48°F , 9°C
Wind Chill: 46°F , 8°C
Dew Point: 46°F , 8°C
Humidity: 94%
Barometer: 30.25 inHg , 1024.4 hPa
Summary: Mist
Clouds: Overcast
Visibility: 3 miles , 5 km
Cloud details: Overcast 1000 ft
2018/12/10 08:56 KPTV 100856Z AUTO 04004KT 3SM BR OVC010 09/08 A3025 RMK AO2 SLP259 T00890078 58013

Metar display script from Saratoga-Weather.org



Visitor Map